sensor_id;sensor_type;location;lat;lon;timestamp;temperature;humidity
18930;DHT22;43305;52.186;5.598;2022-11-20T00:00:22;-2.80;99.90
18930;DHT22;43305;52.186;5.598;2022-11-20T00:02:49;-2.80;99.90
18930;DHT22;43305;52.186;5.598;2022-11-20T00:05:16;-2.80;99.90
18930;DHT22;43305;52.186;5.598;2022-11-20T00:07:44;-2.80;99.90
18930;DHT22;43305;52.186;5.598;2022-11-20T00:10:11;-2.80;99.90
18930;DHT22;43305;52.186;5.598;2022-11-20T00:12:40;-2.80;99.90
18930;DHT22;43305;52.186;5.598;2022-11-20T00:15:08;-2.80;99.90
18930;DHT22;43305;52.186;5.598;2022-11-20T00:17:35;-2.80;99.90
18930;DHT22;43305;52.186;5.598;2022-11-20T00:20:02;-2.80;99.90
18930;DHT22;43305;52.186;5.598;2022-11-20T00:22:29;-2.80;99.90
18930;DHT22;43305;52.186;5.598;2022-11-20T00:24:56;-2.80;99.90
18930;DHT22;43305;52.186;5.598;2022-11-20T00:27:24;-2.90;99.90
18930;DHT22;43305;52.186;5.598;2022-11-20T00:29:54;-2.90;99.90
18930;DHT22;43305;52.186;5.598;2022-11-20T00:32:21;-2.90;99.90
18930;DHT22;43305;52.186;5.598;2022-11-20T00:34:48;-2.90;99.90
18930;DHT22;43305;52.186;5.598;2022-11-20T00:37:14;-2.90;99.90
18930;DHT22;43305;52.186;5.598;2022-11-20T00:39:41;-3.00;99.90
18930;DHT22;43305;52.186;5.598;2022-11-20T00:42:08;-3.00;99.90
18930;DHT22;43305;52.186;5.598;2022-11-20T00:44:35;-3.00;99.90
18930;DHT22;43305;52.186;5.598;2022-11-20T00:47:03;-3.00;99.90
18930;DHT22;43305;52.186;5.598;2022-11-20T00:49:33;-3.10;99.90
18930;DHT22;43305;52.186;5.598;2022-11-20T00:52:00;-3.20;99.90
18930;DHT22;43305;52.186;5.598;2022-11-20T00:54:27;-3.20;99.90
18930;DHT22;43305;52.186;5.598;2022-11-20T00:56:54;-3.20;99.90
18930;DHT22;43305;52.186;5.598;2022-11-20T00:59:21;-3.20;99.90
18930;DHT22;43305;52.186;5.598;2022-11-20T01:01:48;-3.20;99.90
18930;DHT22;43305;52.186;5.598;2022-11-20T01:04:16;-3.20;99.90
18930;DHT22;43305;52.186;5.598;2022-11-20T01:06:43;-3.20;99.90
18930;DHT22;43305;52.186;5.598;2022-11-20T01:09:11;-3.30;99.90
18930;DHT22;43305;52.186;5.598;2022-11-20T01:11:40;-3.30;99.90
18930;DHT22;43305;52.186;5.598;2022-11-20T01:14:10;-3.20;99.90
18930;DHT22;43305;52.186;5.598;2022-11-20T01:16:39;-3.30;99.90
18930;DHT22;43305;52.186;5.598;2022-11-20T01:19:09;-3.40;99.90
18930;DHT22;43305;52.186;5.598;2022-11-20T01:21:40;-3.50;99.90
18930;DHT22;43305;52.186;5.598;2022-11-20T01:24:09;-3.50;99.90
18930;DHT22;43305;52.186;5.598;2022-11-20T01:26:38;-3.60;99.90
18930;DHT22;43305;52.186;5.598;2022-11-20T01:29:06;-3.50;99.90
18930;DHT22;43305;52.186;5.598;2022-11-20T01:31:35;-3.50;99.90
18930;DHT22;43305;52.186;5.598;2022-11-20T01:34:04;-3.50;99.90
18930;DHT22;43305;52.186;5.598;2022-11-20T01:36:32;-3.50;99.90
18930;DHT22;43305;52.186;5.598;2022-11-20T01:39:04;-3.60;99.90
18930;DHT22;43305;52.186;5.598;2022-11-20T01:41:32;-3.50;99.90
18930;DHT22;43305;52.186;5.598;2022-11-20T01:44:16;-3.60;99.90
18930;DHT22;43305;52.186;5.598;2022-11-20T01:46:52;-3.60;99.90
18930;DHT22;43305;52.186;5.598;2022-11-20T01:49:25;-3.70;99.90
18930;DHT22;43305;52.186;5.598;2022-11-20T01:51:56;-3.70;99.90
18930;DHT22;43305;52.186;5.598;2022-11-20T01:54:29;-3.70;99.90
18930;DHT22;43305;52.186;5.598;2022-11-20T01:56:59;-3.80;99.90
18930;DHT22;43305;52.186;5.598;2022-11-20T01:59:28;-3.80;99.90
18930;DHT22;43305;52.186;5.598;2022-11-20T02:01:56;-3.80;99.90
18930;DHT22;43305;52.186;5.598;2022-11-20T02:04:23;-3.80;99.90
18930;DHT22;43305;52.186;5.598;2022-11-20T02:06:55;-3.80;99.90
18930;DHT22;43305;52.186;5.598;2022-11-20T02:09:25;-3.90;99.90
18930;DHT22;43305;52.186;5.598;2022-11-20T02:11:52;-3.90;99.90
18930;DHT22;43305;52.186;5.598;2022-11-20T02:14:19;-3.90;99.90
18930;DHT22;43305;52.186;5.598;2022-11-20T02:16:47;-3.90;99.90
18930;DHT22;43305;52.186;5.598;2022-11-20T02:19:22;-4.00;99.90
18930;DHT22;43305;52.186;5.598;2022-11-20T02:21:58;-4.00;99.90
18930;DHT22;43305;52.186;5.598;2022-11-20T02:24:27;-3.90;99.90
18930;DHT22;43305;52.186;5.598;2022-11-20T02:26:57;-4.00;99.90
18930;DHT22;43305;52.186;5.598;2022-11-20T02:29:33;-4.00;99.90
18930;DHT22;43305;52.186;5.598;2022-11-20T02:32:02;-4.10;99.90
18930;DHT22;43305;52.186;5.598;2022-11-20T02:34:29;-4.10;99.90
18930;DHT22;43305;52.186;5.598;2022-11-20T02:36:56;-4.10;99.90
18930;DHT22;43305;52.186;5.598;2022-11-20T02:39:27;-4.10;99.90
18930;DHT22;43305;52.186;5.598;2022-11-20T02:41:56;-4.10;99.90
18930;DHT22;43305;52.186;5.598;2022-11-20T02:44:22;-4.10;99.90
18930;DHT22;43305;52.186;5.598;2022-11-20T02:46:51;-4.10;99.90
18930;DHT22;43305;52.186;5.598;2022-11-20T02:49:18;-4.20;99.90
18930;DHT22;43305;52.186;5.598;2022-11-20T02:51:45;-4.20;99.90
18930;DHT22;43305;52.186;5.598;2022-11-20T02:54:12;-4.20;99.90
18930;DHT22;43305;52.186;5.598;2022-11-20T02:56:40;-4.20;99.90
18930;DHT22;43305;52.186;5.598;2022-11-20T02:59:07;-4.20;99.90
18930;DHT22;43305;52.186;5.598;2022-11-20T03:01:34;-4.30;99.90
18930;DHT22;43305;52.186;5.598;2022-11-20T03:04:01;-4.20;99.90
18930;DHT22;43305;52.186;5.598;2022-11-20T03:06:28;-4.30;99.90
18930;DHT22;43305;52.186;5.598;2022-11-20T03:08:54;-4.20;99.90
18930;DHT22;43305;52.186;5.598;2022-11-20T03:11:21;-4.20;99.90
18930;DHT22;43305;52.186;5.598;2022-11-20T03:13:49;-4.30;99.90
18930;DHT22;43305;52.186;5.598;2022-11-20T03:16:18;-4.30;99.90
18930;DHT22;43305;52.186;5.598;2022-11-20T03:18:45;-4.40;99.90
18930;DHT22;43305;52.186;5.598;2022-11-20T03:21:13;-4.30;99.90
18930;DHT22;43305;52.186;5.598;2022-11-20T03:23:40;-4.30;99.90
18930;DHT22;43305;52.186;5.598;2022-11-20T03:26:09;-4.40;99.90
18930;DHT22;43305;52.186;5.598;2022-11-20T03:28:36;-4.40;99.90
18930;DHT22;43305;52.186;5.598;2022-11-20T03:31:08;-4.40;99.90
18930;DHT22;43305;52.186;5.598;2022-11-20T03:33:35;-4.40;99.90
18930;DHT22;43305;52.186;5.598;2022-11-20T03:36:03;-4.50;99.90
18930;DHT22;43305;52.186;5.598;2022-11-20T03:38:31;-4.50;99.90
18930;DHT22;43305;52.186;5.598;2022-11-20T03:40:59;-4.50;99.90
18930;DHT22;43305;52.186;5.598;2022-11-20T03:43:27;-4.60;99.90
18930;DHT22;43305;52.186;5.598;2022-11-20T03:45:54;-4.60;99.90
18930;DHT22;43305;52.186;5.598;2022-11-20T03:48:22;-4.60;99.90
18930;DHT22;43305;52.186;5.598;2022-11-20T03:50:49;-4.50;99.90
18930;DHT22;43305;52.186;5.598;2022-11-20T03:53:16;-4.50;99.90
18930;DHT22;43305;52.186;5.598;2022-11-20T03:55:43;-4.50;99.90
18930;DHT22;43305;52.186;5.598;2022-11-20T03:58:10;-4.60;99.90
18930;DHT22;43305;52.186;5.598;2022-11-20T04:00:39;-4.60;99.90
18930;DHT22;43305;52.186;5.598;2022-11-20T04:03:05;-4.70;99.90
18930;DHT22;43305;52.186;5.598;2022-11-20T04:05:34;-4.70;99.90
18930;DHT22;43305;52.186;5.598;2022-11-20T04:08:01;-4.70;99.90
18930;DHT22;43305;52.186;5.598;2022-11-20T04:10:28;-4.70;99.90
18930;DHT22;43305;52.186;5.598;2022-11-20T04:12:55;-4.70;99.90
18930;DHT22;43305;52.186;5.598;2022-11-20T04:15:21;-4.80;99.90
18930;DHT22;43305;52.186;5.598;2022-11-20T04:17:49;-4.80;99.90
18930;DHT22;43305;52.186;5.598;2022-11-20T04:20:16;-4.70;99.90
18930;DHT22;43305;52.186;5.598;2022-11-20T04:22:45;-4.80;99.90
18930;DHT22;43305;52.186;5.598;2022-11-20T04:25:11;-4.80;99.90
18930;DHT22;43305;52.186;5.598;2022-11-20T04:27:38;-4.80;99.90
18930;DHT22;43305;52.186;5.598;2022-11-20T04:30:06;-4.80;99.90
18930;DHT22;43305;52.186;5.598;2022-11-20T04:32:32;-4.80;99.90
18930;DHT22;43305;52.186;5.598;2022-11-20T04:34:59;-4.90;99.90
18930;DHT22;43305;52.186;5.598;2022-11-20T04:37:26;-4.90;99.90
18930;DHT22;43305;52.186;5.598;2022-11-20T04:39:54;-4.90;99.90
18930;DHT22;43305;52.186;5.598;2022-11-20T04:42:21;-4.90;99.90
18930;DHT22;43305;52.186;5.598;2022-11-20T04:44:55;-4.80;99.90
18930;DHT22;43305;52.186;5.598;2022-11-20T04:47:25;-4.90;99.90
18930;DHT22;43305;52.186;5.598;2022-11-20T04:49:52;-4.90;99.90
18930;DHT22;43305;52.186;5.598;2022-11-20T04:52:19;-4.90;99.90
18930;DHT22;43305;52.186;5.598;2022-11-20T04:54:46;-4.90;99.90
18930;DHT22;43305;52.186;5.598;2022-11-20T04:57:15;-4.90;99.90
18930;DHT22;43305;52.186;5.598;2022-11-20T04:59:41;-4.90;99.90
18930;DHT22;43305;52.186;5.598;2022-11-20T05:02:09;-4.90;99.90
18930;DHT22;43305;52.186;5.598;2022-11-20T05:04:35;-4.90;99.90
18930;DHT22;43305;52.186;5.598;2022-11-20T05:07:02;-4.90;99.90
18930;DHT22;43305;52.186;5.598;2022-11-20T05:09:30;-4.90;99.90
18930;DHT22;43305;52.186;5.598;2022-11-20T05:11:56;-4.90;99.90
18930;DHT22;43305;52.186;5.598;2022-11-20T05:14:25;-4.90;99.90
18930;DHT22;43305;52.186;5.598;2022-11-20T05:16:53;-4.90;99.90
18930;DHT22;43305;52.186;5.598;2022-11-20T05:19:20;-4.90;99.90
18930;DHT22;43305;52.186;5.598;2022-11-20T05:21:47;-4.90;99.90
18930;DHT22;43305;52.186;5.598;2022-11-20T05:24:14;-4.90;99.90
18930;DHT22;43305;52.186;5.598;2022-11-20T05:26:41;-4.90;99.90
18930;DHT22;43305;52.186;5.598;2022-11-20T05:29:09;-4.90;99.90
18930;DHT22;43305;52.186;5.598;2022-11-20T05:31:39;-5.00;99.90
18930;DHT22;43305;52.186;5.598;2022-11-20T05:34:06;-5.00;99.90
18930;DHT22;43305;52.186;5.598;2022-11-20T05:36:33;-5.00;99.90
18930;DHT22;43305;52.186;5.598;2022-11-20T05:39:00;-5.00;99.90
18930;DHT22;43305;52.186;5.598;2022-11-20T05:43:56;-5.00;99.90
18930;DHT22;43305;52.186;5.598;2022-11-20T05:46:23;-5.00;99.90
18930;DHT22;43305;52.186;5.598;2022-11-20T05:48:59;-5.00;99.90
18930;DHT22;43305;52.186;5.598;2022-11-20T05:51:27;-5.00;99.90
18930;DHT22;43305;52.186;5.598;2022-11-20T05:53:56;-5.00;99.90
18930;DHT22;43305;52.186;5.598;2022-11-20T05:56:27;-5.00;99.90
18930;DHT22;43305;52.186;5.598;2022-11-20T05:58:57;-5.00;99.90
18930;DHT22;43305;52.186;5.598;2022-11-20T06:01:27;-5.00;99.90
18930;DHT22;43305;52.186;5.598;2022-11-20T06:03:56;-5.00;99.90
18930;DHT22;43305;52.186;5.598;2022-11-20T06:06:23;-5.00;99.90
18930;DHT22;43305;52.186;5.598;2022-11-20T06:08:50;-5.00;99.90
18930;DHT22;43305;52.186;5.598;2022-11-20T06:11:19;-5.00;99.90
18930;DHT22;43305;52.186;5.598;2022-11-20T06:13:49;-5.00;99.90
18930;DHT22;43305;52.186;5.598;2022-11-20T06:16:18;-5.00;99.90
18930;DHT22;43305;52.186;5.598;2022-11-20T06:18:54;-5.10;99.90
18930;DHT22;43305;52.186;5.598;2022-11-20T06:21:24;-5.20;99.90
18930;DHT22;43305;52.186;5.598;2022-11-20T06:23:52;-5.20;99.90
18930;DHT22;43305;52.186;5.598;2022-11-20T06:26:21;-5.20;99.90
18930;DHT22;43305;52.186;5.598;2022-11-20T06:28:51;-5.20;99.90
18930;DHT22;43305;52.186;5.598;2022-11-20T06:31:20;-5.20;99.90
18930;DHT22;43305;52.186;5.598;2022-11-20T06:33:48;-5.20;99.90
18930;DHT22;43305;52.186;5.598;2022-11-20T06:36:19;-5.20;99.90
18930;DHT22;43305;52.186;5.598;2022-11-20T06:38:46;-5.20;99.90
18930;DHT22;43305;52.186;5.598;2022-11-20T06:41:16;-5.20;99.90
18930;DHT22;43305;52.186;5.598;2022-11-20T06:43:52;-5.20;99.90
18930;DHT22;43305;52.186;5.598;2022-11-20T06:46:20;-5.30;99.90
18930;DHT22;43305;52.186;5.598;2022-11-20T06:48:51;-5.20;99.90
18930;DHT22;43305;52.186;5.598;2022-11-20T06:51:19;-5.30;99.90
18930;DHT22;43305;52.186;5.598;2022-11-20T06:53:48;-5.30;99.90
18930;DHT22;43305;52.186;5.598;2022-11-20T06:56:15;-5.20;99.90
18930;DHT22;43305;52.186;5.598;2022-11-20T06:58:42;-5.20;99.90
18930;DHT22;43305;52.186;5.598;2022-11-20T07:01:13;-5.20;99.90
18930;DHT22;43305;52.186;5.598;2022-11-20T07:03:48;-5.20;99.90
18930;DHT22;43305;52.186;5.598;2022-11-20T07:06:19;-5.20;99.90
18930;DHT22;43305;52.186;5.598;2022-11-20T07:08:46;-5.20;99.90
18930;DHT22;43305;52.186;5.598;2022-11-20T07:11:13;-5.20;99.90
18930;DHT22;43305;52.186;5.598;2022-11-20T07:13:44;-5.20;99.90
18930;DHT22;43305;52.186;5.598;2022-11-20T07:16:16;-5.10;99.90
18930;DHT22;43305;52.186;5.598;2022-11-20T07:18:42;-5.10;99.90
18930;DHT22;43305;52.186;5.598;2022-11-20T07:21:12;-5.10;99.90
18930;DHT22;43305;52.186;5.598;2022-11-20T07:23:43;-5.10;99.90
18930;DHT22;43305;52.186;5.598;2022-11-20T07:26:14;-5.00;99.90
18930;DHT22;43305;52.186;5.598;2022-11-20T07:28:44;-5.00;99.90
18930;DHT22;43305;52.186;5.598;2022-11-20T07:31:11;-5.00;99.90
18930;DHT22;43305;52.186;5.598;2022-11-20T07:33:39;-4.90;99.90
18930;DHT22;43305;52.186;5.598;2022-11-20T07:36:09;-4.90;99.90
18930;DHT22;43305;52.186;5.598;2022-11-20T07:38:37;-4.90;99.90
18930;DHT22;43305;52.186;5.598;2022-11-20T07:41:05;-4.80;99.90
18930;DHT22;43305;52.186;5.598;2022-11-20T07:43:31;-4.80;99.90
18930;DHT22;43305;52.186;5.598;2022-11-20T07:46:01;-4.70;99.90
18930;DHT22;43305;52.186;5.598;2022-11-20T07:48:31;-4.70;99.90
18930;DHT22;43305;52.186;5.598;2022-11-20T07:50:58;-4.60;99.90
18930;DHT22;43305;52.186;5.598;2022-11-20T07:53:27;-4.50;99.90
18930;DHT22;43305;52.186;5.598;2022-11-20T07:55:59;-4.50;99.90
18930;DHT22;43305;52.186;5.598;2022-11-20T07:58:28;-4.40;99.90
18930;DHT22;43305;52.186;5.598;2022-11-20T08:01:07;-4.30;99.90
18930;DHT22;43305;52.186;5.598;2022-11-20T08:03:37;-4.30;99.90
18930;DHT22;43305;52.186;5.598;2022-11-20T08:06:07;-4.20;99.90
18930;DHT22;43305;52.186;5.598;2022-11-20T08:08:34;-4.10;99.90
18930;DHT22;43305;52.186;5.598;2022-11-20T08:11:01;-4.00;99.90
18930;DHT22;43305;52.186;5.598;2022-11-20T08:13:43;-4.00;99.90
18930;DHT22;43305;52.186;5.598;2022-11-20T08:16:24;-3.90;99.90
18930;DHT22;43305;52.186;5.598;2022-11-20T08:18:51;-3.80;99.90
18930;DHT22;43305;52.186;5.598;2022-11-20T08:21:21;-3.80;99.90
18930;DHT22;43305;52.186;5.598;2022-11-20T08:23:47;-3.70;99.90
18930;DHT22;43305;52.186;5.598;2022-11-20T08:26:14;-3.60;99.90
18930;DHT22;43305;52.186;5.598;2022-11-20T08:28:42;-3.50;99.90
18930;DHT22;43305;52.186;5.598;2022-11-20T08:31:12;-3.40;99.90
18930;DHT22;43305;52.186;5.598;2022-11-20T08:33:39;-3.30;99.90
18930;DHT22;43305;52.186;5.598;2022-11-20T08:36:06;-3.30;99.90
18930;DHT22;43305;52.186;5.598;2022-11-20T08:38:33;-3.20;99.90
18930;DHT22;43305;52.186;5.598;2022-11-20T08:44:07;-3.00;99.90
18930;DHT22;43305;52.186;5.598;2022-11-20T08:46:36;-2.80;99.90
18930;DHT22;43305;52.186;5.598;2022-11-20T08:49:03;-2.80;99.90
18930;DHT22;43305;52.186;5.598;2022-11-20T08:51:31;-2.70;99.90
18930;DHT22;43305;52.186;5.598;2022-11-20T08:53:58;-2.60;99.90
18930;DHT22;43305;52.186;5.598;2022-11-20T08:56:25;-2.50;99.90
18930;DHT22;43305;52.186;5.598;2022-11-20T08:58:52;-2.40;99.90
18930;DHT22;43305;52.186;5.598;2022-11-20T09:01:21;-2.30;99.90
18930;DHT22;43305;52.186;5.598;2022-11-20T09:03:49;-2.20;99.90
18930;DHT22;43305;52.186;5.598;2022-11-20T09:06:16;-2.20;99.90
18930;DHT22;43305;52.186;5.598;2022-11-20T09:08:43;-2.20;99.90
18930;DHT22;43305;52.186;5.598;2022-11-20T09:11:10;-2.10;99.90
18930;DHT22;43305;52.186;5.598;2022-11-20T09:13:37;-2.10;99.90
18930;DHT22;43305;52.186;5.598;2022-11-20T09:16:14;-2.10;99.90
18930;DHT22;43305;52.186;5.598;2022-11-20T09:18:43;-2.10;99.90
18930;DHT22;43305;52.186;5.598;2022-11-20T09:21:11;-2.00;99.90
18930;DHT22;43305;52.186;5.598;2022-11-20T09:23:39;-2.00;99.90
18930;DHT22;43305;52.186;5.598;2022-11-20T09:26:10;-2.00;99.90
18930;DHT22;43305;52.186;5.598;2022-11-20T09:28:40;-1.90;99.90
18930;DHT22;43305;52.186;5.598;2022-11-20T09:31:08;-1.90;99.90
18930;DHT22;43305;52.186;5.598;2022-11-20T09:33:36;-1.80;99.90
18930;DHT22;43305;52.186;5.598;2022-11-20T09:36:04;-1.70;99.90
18930;DHT22;43305;52.186;5.598;2022-11-20T09:38:31;-1.70;99.90
18930;DHT22;43305;52.186;5.598;2022-11-20T09:41:03;-1.60;99.90
18930;DHT22;43305;52.186;5.598;2022-11-20T09:43:49;-1.60;99.90
18930;DHT22;43305;52.186;5.598;2022-11-20T09:46:23;-1.50;99.90
18930;DHT22;43305;52.186;5.598;2022-11-20T09:49:06;-1.40;99.90
18930;DHT22;43305;52.186;5.598;2022-11-20T09:51:49;-1.40;99.90
18930;DHT22;43305;52.186;5.598;2022-11-20T09:54:21;-1.30;99.90
18930;DHT22;43305;52.186;5.598;2022-11-20T09:56:51;-1.20;99.90
18930;DHT22;43305;52.186;5.598;2022-11-20T09:59:31;-1.20;99.90
18930;DHT22;43305;52.186;5.598;2022-11-20T10:02:00;-1.10;99.90
18930;DHT22;43305;52.186;5.598;2022-11-20T10:04:31;-1.10;99.90
18930;DHT22;43305;52.186;5.598;2022-11-20T10:07:06;-1.00;99.90
18930;DHT22;43305;52.186;5.598;2022-11-20T10:09:35;-0.90;99.90
18930;DHT22;43305;52.186;5.598;2022-11-20T10:12:12;-0.80;99.90
18930;DHT22;43305;52.186;5.598;2022-11-20T10:14:52;-0.80;99.90
18930;DHT22;43305;52.186;5.598;2022-11-20T10:17:33;-0.70;99.90
18930;DHT22;43305;52.186;5.598;2022-11-20T10:20:16;-0.60;99.90
18930;DHT22;43305;52.186;5.598;2022-11-20T10:22:59;-0.50;99.90
18930;DHT22;43305;52.186;5.598;2022-11-20T10:25:38;-0.50;99.90
18930;DHT22;43305;52.186;5.598;2022-11-20T10:28:18;-0.40;99.90
18930;DHT22;43305;52.186;5.598;2022-11-20T10:30:57;-0.30;99.90
18930;DHT22;43305;52.186;5.598;2022-11-20T10:33:27;-0.20;99.90
18930;DHT22;43305;52.186;5.598;2022-11-20T10:36:04;-0.10;99.90
18930;DHT22;43305;52.186;5.598;2022-11-20T10:38:37;0.00;99.90
18930;DHT22;43305;52.186;5.598;2022-11-20T10:41:06;0.10;99.90
18930;DHT22;43305;52.186;5.598;2022-11-20T10:43:49;0.20;99.90
18930;DHT22;43305;52.186;5.598;2022-11-20T10:46:18;0.40;99.90
18930;DHT22;43305;52.186;5.598;2022-11-20T10:48:47;0.50;99.90
18930;DHT22;43305;52.186;5.598;2022-11-20T10:51:26;0.60;99.90
18930;DHT22;43305;52.186;5.598;2022-11-20T10:54:09;0.60;99.90
18930;DHT22;43305;52.186;5.598;2022-11-20T10:56:41;0.70;99.90
18930;DHT22;43305;52.186;5.598;2022-11-20T10:59:26;0.80;99.90
18930;DHT22;43305;52.186;5.598;2022-11-20T11:01:55;0.90;99.90
18930;DHT22;43305;52.186;5.598;2022-11-20T11:04:33;0.90;99.90
18930;DHT22;43305;52.186;5.598;2022-11-20T11:07:08;1.00;99.90
18930;DHT22;43305;52.186;5.598;2022-11-20T11:09:41;1.00;99.90
18930;DHT22;43305;52.186;5.598;2022-11-20T11:12:09;1.00;99.90
18930;DHT22;43305;52.186;5.598;2022-11-20T11:14:45;1.10;99.90
18930;DHT22;43305;52.186;5.598;2022-11-20T11:17:23;1.10;99.90
18930;DHT22;43305;52.186;5.598;2022-11-20T11:20:03;1.00;99.90
18930;DHT22;43305;52.186;5.598;2022-11-20T11:22:42;1.10;99.90
18930;DHT22;43305;52.186;5.598;2022-11-20T11:25:20;1.20;99.90
18930;DHT22;43305;52.186;5.598;2022-11-20T11:27:47;1.30;99.90
18930;DHT22;43305;52.186;5.598;2022-11-20T11:30:17;1.30;99.90
18930;DHT22;43305;52.186;5.598;2022-11-20T11:32:47;1.30;99.90
18930;DHT22;43305;52.186;5.598;2022-11-20T11:35:24;1.40;99.90
18930;DHT22;43305;52.186;5.598;2022-11-20T11:37:52;1.40;99.90
18930;DHT22;43305;52.186;5.598;2022-11-20T11:40:23;1.40;99.90
18930;DHT22;43305;52.186;5.598;2022-11-20T11:42:56;1.50;99.90
18930;DHT22;43305;52.186;5.598;2022-11-20T11:45:24;1.50;99.90
18930;DHT22;43305;52.186;5.598;2022-11-20T11:47:53;1.60;99.90
18930;DHT22;43305;52.186;5.598;2022-11-20T11:50:22;1.50;99.90
18930;DHT22;43305;52.186;5.598;2022-11-20T11:52:59;1.60;99.90
18930;DHT22;43305;52.186;5.598;2022-11-20T11:55:34;1.60;99.90
18930;DHT22;43305;52.186;5.598;2022-11-20T11:58:11;1.60;99.90
18930;DHT22;43305;52.186;5.598;2022-11-20T12:00:41;1.70;99.90
18930;DHT22;43305;52.186;5.598;2022-11-20T12:03:15;1.60;99.90
18930;DHT22;43305;52.186;5.598;2022-11-20T12:05:47;1.70;99.90
18930;DHT22;43305;52.186;5.598;2022-11-20T12:08:18;1.80;99.90
18930;DHT22;43305;52.186;5.598;2022-11-20T12:10:51;1.80;99.90
18930;DHT22;43305;52.186;5.598;2022-11-20T12:13:30;1.80;99.90
18930;DHT22;43305;52.186;5.598;2022-11-20T12:16:02;1.80;99.90
18930;DHT22;43305;52.186;5.598;2022-11-20T12:18:29;1.80;99.90
18930;DHT22;43305;52.186;5.598;2022-11-20T12:21:05;1.80;99.90
18930;DHT22;43305;52.186;5.598;2022-11-20T12:23:42;1.80;99.90
18930;DHT22;43305;52.186;5.598;2022-11-20T12:26:22;1.80;99.90
18930;DHT22;43305;52.186;5.598;2022-11-20T12:29:01;1.90;99.90
18930;DHT22;43305;52.186;5.598;2022-11-20T12:31:52;1.90;99.90
18930;DHT22;43305;52.186;5.598;2022-11-20T12:34:40;2.00;99.90
18930;DHT22;43305;52.186;5.598;2022-11-20T12:37:17;2.00;99.90
18930;DHT22;43305;52.186;5.598;2022-11-20T12:39:49;2.00;99.90
18930;DHT22;43305;52.186;5.598;2022-11-20T12:42:36;2.00;99.90
18930;DHT22;43305;52.186;5.598;2022-11-20T12:45:42;2.00;99.90
18930;DHT22;43305;52.186;5.598;2022-11-20T12:48:27;2.00;99.90
18930;DHT22;43305;52.186;5.598;2022-11-20T12:51:11;2.10;99.90
18930;DHT22;43305;52.186;5.598;2022-11-20T12:53:50;2.10;99.90
18930;DHT22;43305;52.186;5.598;2022-11-20T12:56:29;2.10;99.90
18930;DHT22;43305;52.186;5.598;2022-11-20T12:59:14;2.10;99.90
18930;DHT22;43305;52.186;5.598;2022-11-20T13:01:50;2.10;99.90
18930;DHT22;43305;52.186;5.598;2022-11-20T13:04:29;2.10;99.90
18930;DHT22;43305;52.186;5.598;2022-11-20T13:07:01;2.10;99.90
18930;DHT22;43305;52.186;5.598;2022-11-20T13:09:29;2.10;99.90
18930;DHT22;43305;52.186;5.598;2022-11-20T13:12:02;2.10;99.90
18930;DHT22;43305;52.186;5.598;2022-11-20T13:14:37;2.10;99.90
18930;DHT22;43305;52.186;5.598;2022-11-20T13:17:13;2.10;99.90
18930;DHT22;43305;52.186;5.598;2022-11-20T13:19:41;2.10;99.90
18930;DHT22;43305;52.186;5.598;2022-11-20T13:22:08;2.10;99.90
18930;DHT22;43305;52.186;5.598;2022-11-20T13:24:35;2.10;99.90
18930;DHT22;43305;52.186;5.598;2022-11-20T13:27:17;2.10;99.90
18930;DHT22;43305;52.186;5.598;2022-11-20T13:29:47;2.10;99.90
18930;DHT22;43305;52.186;5.598;2022-11-20T13:32:24;2.10;99.90
18930;DHT22;43305;52.186;5.598;2022-11-20T13:34:53;2.10;99.90
18930;DHT22;43305;52.186;5.598;2022-11-20T13:37:30;2.00;99.90
18930;DHT22;43305;52.186;5.598;2022-11-20T13:40:12;2.10;99.90
18930;DHT22;43305;52.186;5.598;2022-11-20T13:42:43;2.10;99.90
18930;DHT22;43305;52.186;5.598;2022-11-20T13:45:22;2.10;99.90
18930;DHT22;43305;52.186;5.598;2022-11-20T13:47:51;2.10;99.90
18930;DHT22;43305;52.186;5.598;2022-11-20T13:50:18;2.10;99.90
18930;DHT22;43305;52.186;5.598;2022-11-20T13:52:54;2.10;99.90
18930;DHT22;43305;52.186;5.598;2022-11-20T13:55:27;2.10;99.90
18930;DHT22;43305;52.186;5.598;2022-11-20T13:58:07;2.10;99.90
18930;DHT22;43305;52.186;5.598;2022-11-20T14:00:47;2.10;99.90
18930;DHT22;43305;52.186;5.598;2022-11-20T14:03:18;2.00;99.90
18930;DHT22;43305;52.186;5.598;2022-11-20T14:05:51;2.10;99.90
18930;DHT22;43305;52.186;5.598;2022-11-20T14:08:26;2.10;99.90
18930;DHT22;43305;52.186;5.598;2022-11-20T14:11:03;2.10;99.90
18930;DHT22;43305;52.186;5.598;2022-11-20T14:13:30;2.10;99.90
18930;DHT22;43305;52.186;5.598;2022-11-20T14:15:59;2.10;99.90
18930;DHT22;43305;52.186;5.598;2022-11-20T14:18:26;2.10;99.90
18930;DHT22;43305;52.186;5.598;2022-11-20T14:20:53;2.10;99.90
18930;DHT22;43305;52.186;5.598;2022-11-20T14:23:25;2.00;99.90
18930;DHT22;43305;52.186;5.598;2022-11-20T14:25:52;2.10;99.90
18930;DHT22;43305;52.186;5.598;2022-11-20T14:28:24;2.10;99.90
18930;DHT22;43305;52.186;5.598;2022-11-20T14:30:51;2.10;99.90
18930;DHT22;43305;52.186;5.598;2022-11-20T14:33:20;2.10;99.90
18930;DHT22;43305;52.186;5.598;2022-11-20T14:35:51;2.10;99.90
18930;DHT22;43305;52.186;5.598;2022-11-20T14:38:21;2.10;99.90
18930;DHT22;43305;52.186;5.598;2022-11-20T14:40:48;2.00;99.90
18930;DHT22;43305;52.186;5.598;2022-11-20T14:43:18;2.10;99.90
18930;DHT22;43305;52.186;5.598;2022-11-20T14:45:47;2.10;99.90
18930;DHT22;43305;52.186;5.598;2022-11-20T14:48:15;2.10;99.90
18930;DHT22;43305;52.186;5.598;2022-11-20T14:50:44;2.10;99.90
18930;DHT22;43305;52.186;5.598;2022-11-20T14:53:10;2.10;99.90
18930;DHT22;43305;52.186;5.598;2022-11-20T14:55:38;2.10;99.90
18930;DHT22;43305;52.186;5.598;2022-11-20T14:58:19;2.00;99.90
18930;DHT22;43305;52.186;5.598;2022-11-20T15:00:54;2.00;99.90
18930;DHT22;43305;52.186;5.598;2022-11-20T15:03:21;2.10;99.90
18930;DHT22;43305;52.186;5.598;2022-11-20T15:05:50;2.00;99.90
18930;DHT22;43305;52.186;5.598;2022-11-20T15:08:18;2.00;99.90
18930;DHT22;43305;52.186;5.598;2022-11-20T15:10:47;2.00;99.90
18930;DHT22;43305;52.186;5.598;2022-11-20T15:13:18;2.00;99.90
18930;DHT22;43305;52.186;5.598;2022-11-20T15:15:49;2.00;99.90
18930;DHT22;43305;52.186;5.598;2022-11-20T15:18:19;2.00;99.90
18930;DHT22;43305;52.186;5.598;2022-11-20T15:20:54;2.00;99.90
18930;DHT22;43305;52.186;5.598;2022-11-20T15:23:22;2.00;99.90
18930;DHT22;43305;52.186;5.598;2022-11-20T15:25:49;2.00;99.90
18930;DHT22;43305;52.186;5.598;2022-11-20T15:28:18;2.00;99.90
18930;DHT22;43305;52.186;5.598;2022-11-20T15:30:46;2.10;99.90
18930;DHT22;43305;52.186;5.598;2022-11-20T15:33:14;2.00;99.90
18930;DHT22;43305;52.186;5.598;2022-11-20T15:35:42;2.00;99.90
18930;DHT22;43305;52.186;5.598;2022-11-20T15:38:10;2.00;99.90
18930;DHT22;43305;52.186;5.598;2022-11-20T15:40:37;2.00;99.90
18930;DHT22;43305;52.186;5.598;2022-11-20T15:43:03;2.00;99.90
18930;DHT22;43305;52.186;5.598;2022-11-20T15:45:36;2.00;99.90
18930;DHT22;43305;52.186;5.598;2022-11-20T15:48:04;2.00;99.90
18930;DHT22;43305;52.186;5.598;2022-11-20T15:50:38;2.00;99.90
18930;DHT22;43305;52.186;5.598;2022-11-20T15:53:05;2.00;99.90
18930;DHT22;43305;52.186;5.598;2022-11-20T15:55:33;2.00;99.90
18930;DHT22;43305;52.186;5.598;2022-11-20T15:58:00;2.10;99.90
18930;DHT22;43305;52.186;5.598;2022-11-20T16:00:29;2.00;99.90